Hi Land, Louisiana
Current Conditions -  °F | °C
As of 4:41 AM on Monday 22 Dec 2014 (Local Time) from KNBG Reporting Station
Light Rain Light Rain  
Wind Chill: 59°   Ceiling: 1300
Heat Index: 59°   Visibility: 2.5mi
Dew Point: 58°   Wind: 0mph
Humidity: 96%   Direction: NA
Pressure: 29.86"   Gusts: NA
Location:  29.912°N, 89.8759°W
Report Text: KNBG 221041Z AUTO 00000KT 2 1/2SM -RA BR FEW007 BKN013 OVC070 15/14 A2986 RMK AO2 RAB01 TSB17E32 P0011 T01500144 $
Loading
Personal Weather Stations






























Interactive Weather Map New forecast layout! Learn more

10-Day Weather Forecast

Advertisements
Track Severe Weather on mobile